sensor_id;sensor_type;location;lat;lon;timestamp;P1;durP1;ratioP1;P2;durP2;ratioP2
70150;SDS011;57517;43.562;19.540;2023-04-03T00:00:53;18.33;;;13.25;;
70150;SDS011;57517;43.562;19.540;2023-04-03T00:03:19;19.92;;;13.35;;
70150;SDS011;57517;43.562;19.540;2023-04-03T00:05:46;19.40;;;14.18;;
70150;SDS011;57517;43.562;19.540;2023-04-03T00:08:11;18.50;;;13.00;;
70150;SDS011;57517;43.562;19.540;2023-04-03T00:10:37;17.35;;;12.02;;
70150;SDS011;57517;43.562;19.540;2023-04-03T00:13:03;13.70;;;10.45;;
70150;SDS011;57517;43.562;19.540;2023-04-03T00:15:30;15.50;;;10.77;;
70150;SDS011;57517;43.562;19.540;2023-04-03T00:17:56;14.93;;;11.45;;
70150;SDS011;57517;43.562;19.540;2023-04-03T00:20:22;15.82;;;12.20;;
70150;SDS011;57517;43.562;19.540;2023-04-03T00:22:48;25.80;;;16.75;;
70150;SDS011;57517;43.562;19.540;2023-04-03T00:25:14;26.08;;;18.00;;
70150;SDS011;57517;43.562;19.540;2023-04-03T00:27:40;23.08;;;18.15;;
70150;SDS011;57517;43.562;19.540;2023-04-03T00:30:06;28.17;;;20.55;;
70150;SDS011;57517;43.562;19.540;2023-04-03T00:32:41;26.80;;;20.48;;
70150;SDS011;57517;43.562;19.540;2023-04-03T00:35:07;24.65;;;17.92;;
70150;SDS011;57517;43.562;19.540;2023-04-03T00:37:33;21.10;;;15.15;;
70150;SDS011;57517;43.562;19.540;2023-04-03T00:39:59;24.65;;;16.42;;
70150;SDS011;57517;43.562;19.540;2023-04-03T00:42:25;24.25;;;16.85;;
70150;SDS011;57517;43.562;19.540;2023-04-03T00:47:23;18.98;;;13.63;;
70150;SDS011;57517;43.562;19.540;2023-04-03T00:49:49;20.13;;;14.82;;
70150;SDS011;57517;43.562;19.540;2023-04-03T00:52:17;21.33;;;16.15;;
70150;SDS011;57517;43.562;19.540;2023-04-03T00:54:46;22.40;;;15.25;;
70150;SDS011;57517;43.562;19.540;2023-04-03T00:57:13;19.48;;;15.90;;
70150;SDS011;57517;43.562;19.540;2023-04-03T00:59:42;21.52;;;15.95;;
70150;SDS011;57517;43.562;19.540;2023-04-03T01:02:14;20.27;;;15.32;;
70150;SDS011;57517;43.562;19.540;2023-04-03T01:04:40;21.23;;;17.35;;
70150;SDS011;57517;43.562;19.540;2023-04-03T01:07:12;26.98;;;18.98;;
70150;SDS011;57517;43.562;19.540;2023-04-03T01:09:41;26.02;;;19.52;;
70150;SDS011;57517;43.562;19.540;2023-04-03T01:14:42;29.60;;;20.58;;
70150;SDS011;57517;43.562;19.540;2023-04-03T01:17:34;29.40;;;20.67;;
70150;SDS011;57517;43.562;19.540;2023-04-03T01:25:46;26.52;;;20.55;;
70150;SDS011;57517;43.562;19.540;2023-04-03T01:28:17;28.13;;;20.50;;
70150;SDS011;57517;43.562;19.540;2023-04-03T01:30:50;29.08;;;21.65;;
70150;SDS011;57517;43.562;19.540;2023-04-03T01:33:35;28.58;;;21.05;;
70150;SDS011;57517;43.562;19.540;2023-04-03T01:36:02;31.58;;;23.20;;
70150;SDS011;57517;43.562;19.540;2023-04-03T01:38:29;29.10;;;20.33;;
70150;SDS011;57517;43.562;19.540;2023-04-03T01:40:55;26.80;;;20.38;;
70150;SDS011;57517;43.562;19.540;2023-04-03T01:43:21;30.95;;;22.75;;
70150;SDS011;57517;43.562;19.540;2023-04-03T01:45:46;33.08;;;22.00;;
70150;SDS011;57517;43.562;19.540;2023-04-03T01:48:14;30.38;;;22.27;;
70150;SDS011;57517;43.562;19.540;2023-04-03T01:50:40;27.80;;;21.30;;
70150;SDS011;57517;43.562;19.540;2023-04-03T01:53:06;25.33;;;18.88;;
70150;SDS011;57517;43.562;19.540;2023-04-03T01:55:31;28.23;;;21.35;;
70150;SDS011;57517;43.562;19.540;2023-04-03T01:57:57;27.67;;;19.58;;
70150;SDS011;57517;43.562;19.540;2023-04-03T02:00:23;24.77;;;19.17;;
70150;SDS011;57517;43.562;19.540;2023-04-03T02:02:49;33.58;;;21.00;;
70150;SDS011;57517;43.562;19.540;2023-04-03T02:05:14;30.30;;;22.00;;
70150;SDS011;57517;43.562;19.540;2023-04-03T02:07:40;28.58;;;21.23;;
70150;SDS011;57517;43.562;19.540;2023-04-03T02:10:06;26.70;;;20.25;;
70150;SDS011;57517;43.562;19.540;2023-04-03T02:12:32;29.85;;;19.90;;
70150;SDS011;57517;43.562;19.540;2023-04-03T02:14:58;26.35;;;19.50;;
70150;SDS011;57517;43.562;19.540;2023-04-03T02:17:23;28.08;;;20.60;;
70150;SDS011;57517;43.562;19.540;2023-04-03T02:19:49;23.67;;;18.75;;
70150;SDS011;57517;43.562;19.540;2023-04-03T02:22:15;24.95;;;19.25;;
70150;SDS011;57517;43.562;19.540;2023-04-03T02:24:41;24.83;;;18.92;;
70150;SDS011;57517;43.562;19.540;2023-04-03T02:27:06;20.58;;;17.90;;
70150;SDS011;57517;43.562;19.540;2023-04-03T02:29:32;24.35;;;18.02;;
70150;SDS011;57517;43.562;19.540;2023-04-03T02:31:58;22.00;;;17.15;;
70150;SDS011;57517;43.562;19.540;2023-04-03T02:34:24;23.45;;;17.15;;
70150;SDS011;57517;43.562;19.540;2023-04-03T02:36:50;20.75;;;16.75;;
70150;SDS011;57517;43.562;19.540;2023-04-03T02:39:16;22.95;;;17.55;;
70150;SDS011;57517;43.562;19.540;2023-04-03T02:41:42;21.52;;;16.95;;
70150;SDS011;57517;43.562;19.540;2023-04-03T02:44:09;22.27;;;15.73;;
70150;SDS011;57517;43.562;19.540;2023-04-03T02:46:35;20.25;;;15.60;;
70150;SDS011;57517;43.562;19.540;2023-04-03T02:49:01;21.77;;;15.45;;
70150;SDS011;57517;43.562;19.540;2023-04-03T02:51:27;21.48;;;16.10;;
70150;SDS011;57517;43.562;19.540;2023-04-03T02:53:53;20.80;;;16.70;;
70150;SDS011;57517;43.562;19.540;2023-04-03T02:56:19;24.50;;;17.05;;
70150;SDS011;57517;43.562;19.540;2023-04-03T02:58:45;26.63;;;18.55;;
70150;SDS011;57517;43.562;19.540;2023-04-03T03:01:11;24.25;;;17.92;;
70150;SDS011;57517;43.562;19.540;2023-04-03T03:03:37;23.98;;;18.35;;
70150;SDS011;57517;43.562;19.540;2023-04-03T03:08:33;27.10;;;16.42;;
70150;SDS011;57517;43.562;19.540;2023-04-03T03:10:59;17.73;;;14.60;;
70150;SDS011;57517;43.562;19.540;2023-04-03T03:13:25;20.40;;;14.48;;
70150;SDS011;57517;43.562;19.540;2023-04-03T03:15:51;21.63;;;15.40;;
70150;SDS011;57517;43.562;19.540;2023-04-03T03:18:17;20.52;;;15.63;;
70150;SDS011;57517;43.562;19.540;2023-04-03T03:20:43;18.95;;;15.20;;
70150;SDS011;57517;43.562;19.540;2023-04-03T03:23:09;24.60;;;15.82;;
70150;SDS011;57517;43.562;19.540;2023-04-03T03:25:38;19.33;;;14.45;;
70150;SDS011;57517;43.562;19.540;2023-04-03T03:28:05;20.88;;;14.63;;
70150;SDS011;57517;43.562;19.540;2023-04-03T03:30:31;21.45;;;14.95;;
70150;SDS011;57517;43.562;19.540;2023-04-03T03:32:57;17.30;;;13.48;;
70150;SDS011;57517;43.562;19.540;2023-04-03T03:35:23;17.83;;;13.93;;
70150;SDS011;57517;43.562;19.540;2023-04-03T03:37:48;16.48;;;12.73;;
70150;SDS011;57517;43.562;19.540;2023-04-03T03:40:14;17.55;;;13.02;;
70150;SDS011;57517;43.562;19.540;2023-04-03T03:42:40;14.90;;;11.43;;
70150;SDS011;57517;43.562;19.540;2023-04-03T03:45:06;13.90;;;10.18;;
70150;SDS011;57517;43.562;19.540;2023-04-03T03:47:32;25.00;;;14.52;;
70150;SDS011;57517;43.562;19.540;2023-04-03T03:49:58;18.55;;;13.10;;
70150;SDS011;57517;43.562;19.540;2023-04-03T03:52:24;21.55;;;16.80;;
70150;SDS011;57517;43.562;19.540;2023-04-03T03:54:51;26.40;;;20.95;;
70150;SDS011;57517;43.562;19.540;2023-04-03T03:57:16;25.40;;;19.92;;
70150;SDS011;57517;43.562;19.540;2023-04-03T03:59:42;27.70;;;21.70;;
70150;SDS011;57517;43.562;19.540;2023-04-03T04:02:09;34.70;;;24.35;;
70150;SDS011;57517;43.562;19.540;2023-04-03T04:04:36;30.70;;;24.17;;
70150;SDS011;57517;43.562;19.540;2023-04-03T04:07:02;32.15;;;23.52;;
70150;SDS011;57517;43.562;19.540;2023-04-03T04:09:28;29.15;;;23.17;;
70150;SDS011;57517;43.562;19.540;2023-04-03T04:11:54;23.90;;;19.63;;
70150;SDS011;57517;43.562;19.540;2023-04-03T04:14:20;24.38;;;20.02;;
70150;SDS011;57517;43.562;19.540;2023-04-03T04:16:49;21.83;;;18.25;;
70150;SDS011;57517;43.562;19.540;2023-04-03T04:19:15;21.60;;;17.85;;
70150;SDS011;57517;43.562;19.540;2023-04-03T04:21:40;18.52;;;14.88;;
70150;SDS011;57517;43.562;19.540;2023-04-03T04:24:07;18.05;;;13.48;;
70150;SDS011;57517;43.562;19.540;2023-04-03T04:26:33;17.50;;;13.23;;
70150;SDS011;57517;43.562;19.540;2023-04-03T04:28:59;16.60;;;13.85;;
70150;SDS011;57517;43.562;19.540;2023-04-03T04:31:25;19.17;;;13.35;;
70150;SDS011;57517;43.562;19.540;2023-04-03T04:33:52;20.67;;;16.77;;
70150;SDS011;57517;43.562;19.540;2023-04-03T04:36:18;21.77;;;16.73;;
70150;SDS011;57517;43.562;19.540;2023-04-03T04:38:44;24.30;;;19.45;;
70150;SDS011;57517;43.562;19.540;2023-04-03T04:41:10;26.63;;;19.25;;
70150;SDS011;57517;43.562;19.540;2023-04-03T04:43:36;25.40;;;19.52;;
70150;SDS011;57517;43.562;19.540;2023-04-03T04:46:03;24.98;;;20.75;;
70150;SDS011;57517;43.562;19.540;2023-04-03T04:48:30;30.83;;;24.33;;
70150;SDS011;57517;43.562;19.540;2023-04-03T04:50:56;26.08;;;20.50;;
70150;SDS011;57517;43.562;19.540;2023-04-03T04:53:22;27.63;;;21.40;;
70150;SDS011;57517;43.562;19.540;2023-04-03T04:55:47;27.77;;;21.67;;
70150;SDS011;57517;43.562;19.540;2023-04-03T04:58:13;26.38;;;21.70;;
70150;SDS011;57517;43.562;19.540;2023-04-03T05:00:39;31.52;;;22.45;;
70150;SDS011;57517;43.562;19.540;2023-04-03T05:03:05;26.83;;;20.75;;
70150;SDS011;57517;43.562;19.540;2023-04-03T05:05:30;52.95;;;35.72;;
70150;SDS011;57517;43.562;19.540;2023-04-03T05:07:56;40.85;;;30.52;;
70150;SDS011;57517;43.562;19.540;2023-04-03T05:10:22;34.00;;;24.23;;
70150;SDS011;57517;43.562;19.540;2023-04-03T05:12:48;28.77;;;22.63;;
70150;SDS011;57517;43.562;19.540;2023-04-03T05:15:13;38.28;;;27.05;;
70150;SDS011;57517;43.562;19.540;2023-04-03T05:17:39;34.35;;;26.13;;
70150;SDS011;57517;43.562;19.540;2023-04-03T05:20:05;32.67;;;24.23;;
70150;SDS011;57517;43.562;19.540;2023-04-03T05:22:31;34.40;;;22.88;;
70150;SDS011;57517;43.562;19.540;2023-04-03T05:24:57;28.10;;;22.15;;
70150;SDS011;57517;43.562;19.540;2023-04-03T05:27:23;31.00;;;21.77;;
70150;SDS011;57517;43.562;19.540;2023-04-03T05:29:49;29.63;;;22.05;;
70150;SDS011;57517;43.562;19.540;2023-04-03T05:32:15;30.77;;;22.90;;
70150;SDS011;57517;43.562;19.540;2023-04-03T05:34:41;26.10;;;20.45;;
70150;SDS011;57517;43.562;19.540;2023-04-03T05:37:07;23.52;;;20.60;;
70150;SDS011;57517;43.562;19.540;2023-04-03T05:39:33;24.65;;;20.08;;
70150;SDS011;57517;43.562;19.540;2023-04-03T05:41:58;25.25;;;21.05;;
70150;SDS011;57517;43.562;19.540;2023-04-03T05:44:25;18.80;;;15.65;;
70150;SDS011;57517;43.562;19.540;2023-04-03T05:46:51;18.30;;;15.25;;
70150;SDS011;57517;43.562;19.540;2023-04-03T05:49:16;22.55;;;18.42;;
70150;SDS011;57517;43.562;19.540;2023-04-03T05:51:42;30.70;;;23.88;;
70150;SDS011;57517;43.562;19.540;2023-04-03T05:54:16;27.30;;;19.83;;
70150;SDS011;57517;43.562;19.540;2023-04-03T05:56:48;25.70;;;20.80;;
70150;SDS011;57517;43.562;19.540;2023-04-03T05:59:15;28.75;;;21.52;;
70150;SDS011;57517;43.562;19.540;2023-04-03T06:01:41;28.52;;;20.95;;
70150;SDS011;57517;43.562;19.540;2023-04-03T06:04:07;31.70;;;23.15;;
70150;SDS011;57517;43.562;19.540;2023-04-03T06:06:52;30.70;;;22.23;;
70150;SDS011;57517;43.562;19.540;2023-04-03T06:09:21;31.35;;;18.27;;
70150;SDS011;57517;43.562;19.540;2023-04-03T06:11:49;20.92;;;17.48;;
70150;SDS011;57517;43.562;19.540;2023-04-03T06:14:16;29.25;;;22.25;;
70150;SDS011;57517;43.562;19.540;2023-04-03T06:16:41;26.00;;;18.08;;
70150;SDS011;57517;43.562;19.540;2023-04-03T06:19:08;16.77;;;12.93;;
70150;SDS011;57517;43.562;19.540;2023-04-03T06:21:34;19.38;;;14.15;;
70150;SDS011;57517;43.562;19.540;2023-04-03T06:24:01;18.15;;;14.18;;
70150;SDS011;57517;43.562;19.540;2023-04-03T06:26:28;14.57;;;11.23;;
70150;SDS011;57517;43.562;19.540;2023-04-03T06:28:54;14.60;;;11.15;;
70150;SDS011;57517;43.562;19.540;2023-04-03T06:31:19;15.77;;;12.63;;
70150;SDS011;57517;43.562;19.540;2023-04-03T06:33:45;18.10;;;13.80;;
70150;SDS011;57517;43.562;19.540;2023-04-03T06:36:11;15.32;;;12.60;;
70150;SDS011;57517;43.562;19.540;2023-04-03T06:38:37;12.38;;;10.73;;
70150;SDS011;57517;43.562;19.540;2023-04-03T06:41:03;15.75;;;11.82;;
70150;SDS011;57517;43.562;19.540;2023-04-03T06:43:28;14.65;;;10.40;;
70150;SDS011;57517;43.562;19.540;2023-04-03T06:45:56;13.60;;;9.63;;
70150;SDS011;57517;43.562;19.540;2023-04-03T06:48:22;11.77;;;8.02;;
70150;SDS011;57517;43.562;19.540;2023-04-03T06:50:48;12.25;;;9.18;;
70150;SDS011;57517;43.562;19.540;2023-04-03T06:53:14;13.38;;;9.13;;
70150;SDS011;57517;43.562;19.540;2023-04-03T06:55:39;20.15;;;14.07;;
70150;SDS011;57517;43.562;19.540;2023-04-03T06:58:06;14.55;;;9.63;;
70150;SDS011;57517;43.562;19.540;2023-04-03T07:00:32;20.92;;;13.18;;
70150;SDS011;57517;43.562;19.540;2023-04-03T07:02:58;29.10;;;17.05;;
70150;SDS011;57517;43.562;19.540;2023-04-03T07:05:24;27.05;;;17.58;;
70150;SDS011;57517;43.562;19.540;2023-04-03T07:07:51;24.05;;;18.08;;
70150;SDS011;57517;43.562;19.540;2023-04-03T07:10:17;45.08;;;32.90;;
70150;SDS011;57517;43.562;19.540;2023-04-03T07:12:43;22.42;;;18.92;;
70150;SDS011;57517;43.562;19.540;2023-04-03T07:15:10;20.33;;;16.27;;
70150;SDS011;57517;43.562;19.540;2023-04-03T07:17:37;15.18;;;9.25;;
70150;SDS011;57517;43.562;19.540;2023-04-03T07:20:03;16.85;;;11.50;;
70150;SDS011;57517;43.562;19.540;2023-04-03T07:22:30;16.88;;;14.45;;
70150;SDS011;57517;43.562;19.540;2023-04-03T07:24:55;14.98;;;11.70;;
70150;SDS011;57517;43.562;19.540;2023-04-03T07:27:21;18.25;;;13.38;;
70150;SDS011;57517;43.562;19.540;2023-04-03T07:29:47;16.75;;;12.75;;
70150;SDS011;57517;43.562;19.540;2023-04-03T07:32:13;19.30;;;14.63;;
70150;SDS011;57517;43.562;19.540;2023-04-03T07:34:40;17.20;;;12.65;;
70150;SDS011;57517;43.562;19.540;2023-04-03T07:37:06;21.65;;;14.82;;
70150;SDS011;57517;43.562;19.540;2023-04-03T07:39:34;16.98;;;11.45;;
70150;SDS011;57517;43.562;19.540;2023-04-03T07:42:00;14.40;;;10.75;;
70150;SDS011;57517;43.562;19.540;2023-04-03T07:44:26;13.20;;;8.93;;
70150;SDS011;57517;43.562;19.540;2023-04-03T07:46:53;13.15;;;9.20;;
70150;SDS011;57517;43.562;19.540;2023-04-03T07:49:21;15.73;;;11.85;;
70150;SDS011;57517;43.562;19.540;2023-04-03T07:51:49;15.85;;;12.20;;
70150;SDS011;57517;43.562;19.540;2023-04-03T07:54:14;14.95;;;10.23;;
70150;SDS011;57517;43.562;19.540;2023-04-03T07:56:40;12.25;;;9.60;;
70150;SDS011;57517;43.562;19.540;2023-04-03T07:59:08;10.55;;;9.25;;
70150;SDS011;57517;43.562;19.540;2023-04-03T08:01:35;13.18;;;9.95;;
70150;SDS011;57517;43.562;19.540;2023-04-03T08:04:01;10.10;;;9.10;;
70150;SDS011;57517;43.562;19.540;2023-04-03T08:06:27;11.93;;;8.68;;
70150;SDS011;57517;43.562;19.540;2023-04-03T08:08:54;14.82;;;8.45;;
70150;SDS011;57517;43.562;19.540;2023-04-03T08:11:20;14.20;;;10.10;;
70150;SDS011;57517;43.562;19.540;2023-04-03T08:13:48;12.60;;;9.10;;
70150;SDS011;57517;43.562;19.540;2023-04-03T08:16:18;13.23;;;10.10;;
70150;SDS011;57517;43.562;19.540;2023-04-03T08:18:46;13.00;;;9.07;;
70150;SDS011;57517;43.562;19.540;2023-04-03T08:21:11;9.90;;;7.95;;
70150;SDS011;57517;43.562;19.540;2023-04-03T08:23:38;14.85;;;9.73;;
70150;SDS011;57517;43.562;19.540;2023-04-03T08:26:10;11.23;;;7.75;;
70150;SDS011;57517;43.562;19.540;2023-04-03T08:28:38;20.15;;;16.20;;
70150;SDS011;57517;43.562;19.540;2023-04-03T08:31:05;12.38;;;8.45;;
70150;SDS011;57517;43.562;19.540;2023-04-03T08:33:33;10.38;;;6.10;;
70150;SDS011;57517;43.562;19.540;2023-04-03T08:36:00;11.35;;;7.78;;
70150;SDS011;57517;43.562;19.540;2023-04-03T08:38:27;13.32;;;9.00;;
70150;SDS011;57517;43.562;19.540;2023-04-03T08:41:04;20.25;;;8.85;;
70150;SDS011;57517;43.562;19.540;2023-04-03T08:43:40;8.52;;;6.15;;
70150;SDS011;57517;43.562;19.540;2023-04-03T08:46:35;14.02;;;8.65;;
70150;SDS011;57517;43.562;19.540;2023-04-03T08:49:23;8.75;;;6.70;;
70150;SDS011;57517;43.562;19.540;2023-04-03T08:51:53;12.82;;;9.48;;
70150;SDS011;57517;43.562;19.540;2023-04-03T08:54:23;17.08;;;14.30;;
70150;SDS011;57517;43.562;19.540;2023-04-03T08:56:52;17.20;;;13.48;;
70150;SDS011;57517;43.562;19.540;2023-04-03T08:59:19;13.82;;;11.38;;
70150;SDS011;57517;43.562;19.540;2023-04-03T09:01:54;9.95;;;7.05;;
70150;SDS011;57517;43.562;19.540;2023-04-03T09:04:22;17.23;;;12.27;;
70150;SDS011;57517;43.562;19.540;2023-04-03T09:06:55;11.27;;;9.38;;
70150;SDS011;57517;43.562;19.540;2023-04-03T09:09:32;17.38;;;14.07;;
70150;SDS011;57517;43.562;19.540;2023-04-03T09:12:22;16.88;;;11.38;;
70150;SDS011;57517;43.562;19.540;2023-04-03T09:22:41;11.00;;;7.93;;
70150;SDS011;57517;43.562;19.540;2023-04-03T09:25:13;10.00;;;7.93;;
70150;SDS011;57517;43.562;19.540;2023-04-03T09:27:44;12.32;;;10.23;;
70150;SDS011;57517;43.562;19.540;2023-04-03T09:30:18;11.52;;;8.85;;
70150;SDS011;57517;43.562;19.540;2023-04-03T09:32:49;13.70;;;10.15;;
70150;SDS011;57517;43.562;19.540;2023-04-03T09:37:52;12.80;;;9.90;;
70150;SDS011;57517;43.562;19.540;2023-04-03T09:40:28;9.63;;;7.95;;
70150;SDS011;57517;43.562;19.540;2023-04-03T09:43:00;10.18;;;7.38;;
70150;SDS011;57517;43.562;19.540;2023-04-03T09:45:45;10.90;;;7.60;;
70150;SDS011;57517;43.562;19.540;2023-04-03T09:50:38;12.02;;;7.72;;
70150;SDS011;57517;43.562;19.540;2023-04-03T09:53:31;9.50;;;7.03;;
70150;SDS011;57517;43.562;19.540;2023-04-03T09:56:00;9.82;;;8.77;;
70150;SDS011;57517;43.562;19.540;2023-04-03T09:58:38;11.63;;;8.38;;
70150;SDS011;57517;43.562;19.540;2023-04-03T10:01:20;7.88;;;5.43;;
70150;SDS011;57517;43.562;19.540;2023-04-03T10:06:50;9.68;;;7.47;;
70150;SDS011;57517;43.562;19.540;2023-04-03T10:17:29;11.20;;;9.32;;
70150;SDS011;57517;43.562;19.540;2023-04-03T10:26:12;12.43;;;8.70;;
70150;SDS011;57517;43.562;19.540;2023-04-03T10:39:12;12.00;;;7.40;;
70150;SDS011;57517;43.562;19.540;2023-04-03T10:52:39;9.80;;;6.22;;
70150;SDS011;57517;43.562;19.540;2023-04-03T10:57:54;7.95;;;5.43;;
70150;SDS011;57517;43.562;19.540;2023-04-03T11:00:35;8.70;;;5.95;;
70150;SDS011;57517;43.562;19.540;2023-04-03T11:03:10;12.50;;;8.60;;
70150;SDS011;57517;43.562;19.540;2023-04-03T11:05:52;11.20;;;9.02;;
70150;SDS011;57517;43.562;19.540;2023-04-03T11:10:57;10.15;;;7.72;;
70150;SDS011;57517;43.562;19.540;2023-04-03T11:16:46;14.95;;;9.43;;
70150;SDS011;57517;43.562;19.540;2023-04-03T11:22:01;35.03;;;22.90;;
70150;SDS011;57517;43.562;19.540;2023-04-03T11:24:33;39.55;;;28.23;;
70150;SDS011;57517;43.562;19.540;2023-04-03T11:27:01;21.55;;;16.67;;
70150;SDS011;57517;43.562;19.540;2023-04-03T11:29:36;13.77;;;10.68;;
70150;SDS011;57517;43.562;19.540;2023-04-03T11:37:13;13.15;;;9.93;;
70150;SDS011;57517;43.562;19.540;2023-04-03T11:40:04;15.30;;;10.20;;
70150;SDS011;57517;43.562;19.540;2023-04-03T11:42:40;9.85;;;7.57;;
70150;SDS011;57517;43.562;19.540;2023-04-03T11:47:52;13.65;;;10.90;;
70150;SDS011;57517;43.562;19.540;2023-04-03T12:05:50;8.95;;;6.65;;
70150;SDS011;57517;43.562;19.540;2023-04-03T12:13:39;15.82;;;10.25;;
70150;SDS011;57517;43.562;19.540;2023-04-03T12:16:20;16.27;;;11.20;;
70150;SDS011;57517;43.562;19.540;2023-04-03T12:29:01;17.40;;;12.63;;
70150;SDS011;57517;43.562;19.540;2023-04-03T12:34:43;17.48;;;12.27;;
70150;SDS011;57517;43.562;19.540;2023-04-03T12:46:21;13.80;;;10.52;;
70150;SDS011;57517;43.562;19.540;2023-04-03T12:48:56;17.23;;;11.25;;
70150;SDS011;57517;43.562;19.540;2023-04-03T12:51:37;16.10;;;12.05;;
70150;SDS011;57517;43.562;19.540;2023-04-03T12:57:10;22.50;;;15.23;;
70150;SDS011;57517;43.562;19.540;2023-04-03T12:59:36;16.90;;;12.52;;
70150;SDS011;57517;43.562;19.540;2023-04-03T13:02:07;14.25;;;10.45;;
70150;SDS011;57517;43.562;19.540;2023-04-03T13:04:46;13.23;;;10.02;;
70150;SDS011;57517;43.562;19.540;2023-04-03T13:07:19;14.80;;;11.45;;
70150;SDS011;57517;43.562;19.540;2023-04-03T13:09:59;14.27;;;11.63;;
70150;SDS011;57517;43.562;19.540;2023-04-03T13:12:27;11.50;;;8.85;;
70150;SDS011;57517;43.562;19.540;2023-04-03T13:14:57;10.45;;;7.00;;
70150;SDS011;57517;43.562;19.540;2023-04-03T13:17:25;9.32;;;6.80;;
70150;SDS011;57517;43.562;19.540;2023-04-03T13:19:54;11.00;;;7.20;;
70150;SDS011;57517;43.562;19.540;2023-04-03T13:22:27;21.13;;;13.95;;
70150;SDS011;57517;43.562;19.540;2023-04-03T13:25:05;23.33;;;16.50;;
70150;SDS011;57517;43.562;19.540;2023-04-03T13:27:34;23.25;;;13.60;;
70150;SDS011;57517;43.562;19.540;2023-04-03T13:30:02;21.58;;;14.48;;
70150;SDS011;57517;43.562;19.540;2023-04-03T13:32:32;17.65;;;12.70;;
70150;SDS011;57517;43.562;19.540;2023-04-03T13:34:58;14.18;;;9.88;;
70150;SDS011;57517;43.562;19.540;2023-04-03T13:37:32;16.83;;;11.80;;
70150;SDS011;57517;43.562;19.540;2023-04-03T13:42:33;31.70;;;23.55;;
70150;SDS011;57517;43.562;19.540;2023-04-03T13:45:16;26.55;;;18.52;;
70150;SDS011;57517;43.562;19.540;2023-04-03T13:47:55;20.40;;;14.25;;
70150;SDS011;57517;43.562;19.540;2023-04-03T13:53:24;20.75;;;15.73;;
70150;SDS011;57517;43.562;19.540;2023-04-03T13:58:29;20.33;;;14.85;;
70150;SDS011;57517;43.562;19.540;2023-04-03T14:03:46;22.92;;;16.83;;
70150;SDS011;57517;43.562;19.540;2023-04-03T14:06:14;23.27;;;17.55;;
70150;SDS011;57517;43.562;19.540;2023-04-03T14:08:41;60.17;;;40.33;;
70150;SDS011;57517;43.562;19.540;2023-04-03T14:11:12;58.22;;;41.78;;
70150;SDS011;57517;43.562;19.540;2023-04-03T14:14:00;39.20;;;30.15;;
70150;SDS011;57517;43.562;19.540;2023-04-03T14:16:31;39.78;;;30.38;;
70150;SDS011;57517;43.562;19.540;2023-04-03T14:19:01;38.15;;;30.20;;
70150;SDS011;57517;43.562;19.540;2023-04-03T14:21:26;34.22;;;27.38;;
70150;SDS011;57517;43.562;19.540;2023-04-03T14:23:52;32.95;;;25.45;;
70150;SDS011;57517;43.562;19.540;2023-04-03T14:26:21;32.97;;;25.77;;
70150;SDS011;57517;43.562;19.540;2023-04-03T14:29:03;21.52;;;16.88;;
70150;SDS011;57517;43.562;19.540;2023-04-03T14:31:29;25.42;;;19.10;;
70150;SDS011;57517;43.562;19.540;2023-04-03T14:33:55;32.30;;;23.75;;
70150;SDS011;57517;43.562;19.540;2023-04-03T14:36:22;23.67;;;18.90;;
70150;SDS011;57517;43.562;19.540;2023-04-03T14:38:53;22.67;;;16.67;;
70150;SDS011;57517;43.562;19.540;2023-04-03T14:41:21;22.65;;;15.45;;
70150;SDS011;57517;43.562;19.540;2023-04-03T14:43:48;26.63;;;21.83;;
70150;SDS011;57517;43.562;19.540;2023-04-03T14:46:37;30.75;;;27.00;;
70150;SDS011;57517;43.562;19.540;2023-04-03T14:49:03;24.13;;;18.42;;
70150;SDS011;57517;43.562;19.540;2023-04-03T14:51:37;19.67;;;15.18;;
70150;SDS011;57517;43.562;19.540;2023-04-03T14:54:03;11.68;;;9.32;;
70150;SDS011;57517;43.562;19.540;2023-04-03T14:56:30;19.55;;;14.88;;
70150;SDS011;57517;43.562;19.540;2023-04-03T14:58:57;19.42;;;14.90;;
70150;SDS011;57517;43.562;19.540;2023-04-03T15:01:25;17.77;;;13.98;;
70150;SDS011;57517;43.562;19.540;2023-04-03T15:03:52;18.10;;;13.55;;
70150;SDS011;57517;43.562;19.540;2023-04-03T15:06:18;15.35;;;10.88;;
70150;SDS011;57517;43.562;19.540;2023-04-03T15:08:45;18.75;;;14.18;;
70150;SDS011;57517;43.562;19.540;2023-04-03T15:11:12;15.27;;;9.95;;
70150;SDS011;57517;43.562;19.540;2023-04-03T15:13:38;19.40;;;15.00;;
70150;SDS011;57517;43.562;19.540;2023-04-03T15:16:05;24.70;;;20.88;;
70150;SDS011;57517;43.562;19.540;2023-04-03T15:18:37;19.05;;;14.70;;
70150;SDS011;57517;43.562;19.540;2023-04-03T15:21:04;18.10;;;14.50;;
70150;SDS011;57517;43.562;19.540;2023-04-03T15:23:30;19.50;;;13.98;;
70150;SDS011;57517;43.562;19.540;2023-04-03T15:25:56;19.35;;;15.88;;
70150;SDS011;57517;43.562;19.540;2023-04-03T15:28:36;21.85;;;15.50;;
70150;SDS011;57517;43.562;19.540;2023-04-03T15:31:04;14.32;;;10.82;;
70150;SDS011;57517;43.562;19.540;2023-04-03T15:33:31;15.55;;;10.65;;
70150;SDS011;57517;43.562;19.540;2023-04-03T15:35:58;16.85;;;12.07;;
70150;SDS011;57517;43.562;19.540;2023-04-03T15:38:24;14.20;;;10.23;;
70150;SDS011;57517;43.562;19.540;2023-04-03T15:40:50;17.30;;;13.35;;
70150;SDS011;57517;43.562;19.540;2023-04-03T15:43:16;19.13;;;14.02;;
70150;SDS011;57517;43.562;19.540;2023-04-03T15:45:42;19.42;;;15.05;;
70150;SDS011;57517;43.562;19.540;2023-04-03T15:48:09;19.50;;;14.82;;
70150;SDS011;57517;43.562;19.540;2023-04-03T15:50:35;21.42;;;16.88;;
70150;SDS011;57517;43.562;19.540;2023-04-03T15:53:02;17.52;;;13.65;;
70150;SDS011;57517;43.562;19.540;2023-04-03T15:55:29;16.63;;;11.35;;
70150;SDS011;57517;43.562;19.540;2023-04-03T15:57:57;14.75;;;11.95;;
70150;SDS011;57517;43.562;19.540;2023-04-03T16:00:23;22.50;;;16.83;;
70150;SDS011;57517;43.562;19.540;2023-04-03T16:02:52;16.77;;;12.80;;
70150;SDS011;57517;43.562;19.540;2023-04-03T16:05:22;18.27;;;13.60;;
70150;SDS011;57517;43.562;19.540;2023-04-03T16:07:48;17.52;;;12.73;;
70150;SDS011;57517;43.562;19.540;2023-04-03T16:10:16;16.08;;;12.57;;
70150;SDS011;57517;43.562;19.540;2023-04-03T16:12:43;19.02;;;13.02;;
70150;SDS011;57517;43.562;19.540;2023-04-03T16:15:09;28.13;;;19.08;;
70150;SDS011;57517;43.562;19.540;2023-04-03T16:17:35;29.05;;;20.17;;
70150;SDS011;57517;43.562;19.540;2023-04-03T16:20:03;21.73;;;17.13;;
70150;SDS011;57517;43.562;19.540;2023-04-03T16:22:30;15.35;;;11.50;;
70150;SDS011;57517;43.562;19.540;2023-04-03T16:24:56;20.63;;;13.93;;
70150;SDS011;57517;43.562;19.540;2023-04-03T16:27:22;18.55;;;14.18;;
70150;SDS011;57517;43.562;19.540;2023-04-03T16:29:52;21.88;;;17.58;;
70150;SDS011;57517;43.562;19.540;2023-04-03T16:32:22;22.65;;;17.67;;
70150;SDS011;57517;43.562;19.540;2023-04-03T16:34:49;21.10;;;16.52;;
70150;SDS011;57517;43.562;19.540;2023-04-03T16:37:15;22.52;;;17.13;;
70150;SDS011;57517;43.562;19.540;2023-04-03T16:39:42;29.00;;;21.58;;